Time;durP1;ratioP1;P1;durP2;ratioP2;P2;SDS_P1;SDS_P2;PMS_P1;PMS_P2;Temp;Humidity;BMP_temperature;BMP_pressure;BME280_temperature;BME280_humidity;BME280_pressure;Samples;Min_cycle;Max_cycle;Signal;HPM_P1;HPM_P2
2022/03/07 00:01:42;;;;;;;4.20;3.40;;;1.00;99.90;;;1.87;79.80;-19790.59;5030563;28;20347;-58
2022/03/07 00:04:14;;;;;;;4.80;3.30;;;1.00;99.90;;;1.96;79.63;-19793.66;5030944;28;20611;-59
2022/03/07 00:06:43;;;;;;;4.90;3.50;;;1.00;99.90;;;1.82;79.91;-19788.72;5014938;28;20279;-58
2022/03/07 00:09:11;;;;;;;3.90;3.37;;;1.00;99.90;;;1.97;79.76;-19794.00;5010819;28;20301;-58
2022/03/07 00:11:39;;;;;;;3.77;3.40;;;1.00;99.90;;;2.00;79.66;-19794.88;5010664;28;20310;-58
2022/03/07 00:14:08;;;;;;;3.70;3.40;;;1.10;99.90;;;1.72;80.69;-19785.28;5011057;28;20338;-59
2022/03/07 00:16:36;;;;;;;3.70;3.40;;;1.00;99.90;;;1.68;80.65;-19783.94;5012822;28;20690;-59
2022/03/07 00:19:04;;;;;;;4.27;3.87;;;0.90;99.90;;;1.56;81.87;-19780.00;5011194;28;20702;-58
2022/03/07 00:21:34;;;;;;;3.80;3.50;;;0.90;99.90;;;1.89;81.14;-19791.09;5010742;28;20321;-56
2022/03/07 00:24:05;;;;;;;4.17;3.80;;;1.00;99.90;;;1.72;81.63;-19785.47;5010794;28;20638;-58
2022/03/07 00:26:34;;;;;;;4.03;3.60;;;1.00;99.90;;;1.77;82.12;-19787.19;5010672;28;20184;-56
2022/03/07 00:29:04;;;;;;;6.57;4.00;;;1.00;99.90;;;1.76;82.36;-19786.66;5010997;28;20282;-57
2022/03/07 00:31:32;;;;;;;3.90;3.53;;;1.00;99.90;;;1.71;82.82;-19785.13;5010147;28;20310;-58
2022/03/07 00:34:00;;;;;;;4.57;3.83;;;0.90;99.90;;;1.80;83.05;-19788.03;5010506;28;20256;-57
2022/03/07 00:36:28;;;;;;;4.70;4.17;;;1.00;99.90;;;1.71;83.91;-19785.13;5010264;28;20241;-58
2022/03/07 00:38:57;;;;;;;4.13;3.60;;;1.00;99.90;;;1.69;84.15;-19784.44;5010252;28;20222;-58
2022/03/07 00:41:26;;;;;;;3.93;3.53;;;1.00;99.90;;;1.79;83.37;-19787.69;5010981;28;20270;-56
2022/03/07 00:43:54;;;;;;;4.63;3.73;;;1.00;99.90;;;1.74;83.45;-19785.97;5010026;28;20325;-56
2022/03/07 00:46:22;;;;;;;5.70;4.20;;;0.90;99.90;;;1.71;83.88;-19785.13;5010142;28;20601;-57
2022/03/07 00:48:50;;;;;;;5.33;4.03;;;0.90;99.90;;;1.65;84.10;-19783.06;5010081;28;20783;-56
2022/03/07 00:51:18;;;;;;;4.93;4.20;;;0.90;99.90;;;1.64;84.33;-19782.56;5022609;28;20618;-58
2022/03/07 00:53:47;;;;;;;5.30;4.47;;;0.90;99.90;;;1.84;83.90;-19789.41;5030000;28;20305;-58
2022/03/07 00:56:15;;;;;;;6.97;4.23;;;0.90;99.90;;;1.56;84.96;-19780.00;5030340;28;20955;-59
2022/03/07 00:58:45;;;;;;;4.70;4.30;;;0.80;99.90;;;1.65;85.20;-19782.91;5029480;28;20712;-58
2022/03/07 01:01:14;;;;;;;5.00;4.50;;;0.90;99.90;;;1.64;85.19;-19782.72;5029736;28;20820;-58
2022/03/07 01:03:42;;;;;;;4.90;4.40;;;0.80;99.90;;;1.51;86.22;-19778.28;5029964;28;20229;-59
2022/03/07 01:06:10;;;;;;;5.17;4.53;;;0.80;99.90;;;1.56;86.20;-19780.00;5017795;28;20226;-59
2022/03/07 01:08:38;;;;;;;5.17;4.67;;;0.80;99.90;;;1.46;87.07;-19776.41;5009673;28;20220;-59
2022/03/07 01:11:07;;;;;;;4.90;4.40;;;0.80;99.90;;;1.51;87.41;-19778.13;5010263;28;20243;-56
2022/03/07 01:13:35;;;;;;;4.77;4.20;;;0.80;99.90;;;1.65;87.77;-19782.91;5009659;28;20231;-60
2022/03/07 01:16:05;;;;;;;5.87;5.23;;;0.80;99.90;;;1.60;87.25;-19781.38;5009923;28;20753;-59
2022/03/07 01:18:33;;;;;;;4.97;4.47;;;0.80;99.90;;;1.71;87.43;-19784.97;5009901;28;20238;-58
2022/03/07 01:21:01;;;;;;;6.03;4.50;;;0.90;99.90;;;1.79;87.38;-19787.88;5009740;28;20242;-56
2022/03/07 01:23:29;;;;;;;5.87;5.07;;;0.90;99.90;;;1.83;86.21;-19789.06;5010873;28;20213;-59
2022/03/07 01:25:57;;;;;;;5.40;4.77;;;0.90;99.90;;;1.65;87.04;-19783.06;5009637;28;20717;-57
2022/03/07 01:28:25;;;;;;;5.10;4.60;;;0.90;99.90;;;1.58;87.32;-19780.50;5009889;28;20237;-58
2022/03/07 01:30:53;;;;;;;4.60;4.20;;;0.90;99.90;;;1.90;86.13;-19791.63;5009438;28;20658;-58
2022/03/07 01:33:23;;;;;;;4.63;4.23;;;0.90;99.90;;;1.97;85.86;-19794.00;5009970;28;20277;-58
2022/03/07 01:35:52;;;;;;;5.17;4.67;;;1.00;99.90;;;2.00;85.66;-19794.88;5009662;28;20256;-60
2022/03/07 01:38:20;;;;;;;5.13;4.43;;;1.00;99.90;;;1.93;86.70;-19792.47;5010565;28;20218;-60
2022/03/07 01:40:50;;;;;;;4.63;4.23;;;1.00;99.90;;;1.90;86.58;-19791.63;5009925;28;20238;-58
2022/03/07 01:43:18;;;;;;;6.03;4.20;;;1.00;99.90;;;1.65;87.79;-19783.06;5009925;28;20234;-60
2022/03/07 01:45:46;;;;;;;5.13;4.63;;;1.00;99.90;;;1.82;87.78;-19788.88;5009658;28;20222;-58
2022/03/07 01:48:14;;;;;;;4.37;3.97;;;0.90;99.90;;;1.69;87.61;-19784.28;5009914;28;20313;-58
2022/03/07 01:50:44;;;;;;;5.77;4.03;;;0.90;99.90;;;1.75;87.75;-19786.50;5016919;28;20198;-57
2022/03/07 01:53:12;;;;;;;5.37;4.77;;;0.90;99.90;;;1.66;88.73;-19783.41;5029702;28;20293;-59
2022/03/07 01:55:41;;;;;;;5.50;4.87;;;0.90;99.90;;;1.66;88.74;-19783.41;5029335;28;20308;-57
2022/03/07 01:58:09;;;;;;;5.40;4.33;;;0.90;99.90;;;1.65;88.93;-19782.91;5028737;28;20710;-58
2022/03/07 02:00:37;;;;;;;5.87;4.73;;;0.90;99.90;;;1.57;89.46;-19780.16;5028936;28;20316;-57
2022/03/07 02:03:05;;;;;;;5.10;4.60;;;0.80;99.90;;;1.68;88.92;-19783.94;5029183;28;20625;-58
2022/03/07 02:05:33;;;;;;;8.10;5.03;;;0.80;99.90;;;1.69;88.78;-19784.44;5022137;28;20210;-62
2022/03/07 02:08:03;;;;;;;6.63;4.70;;;0.80;99.90;;;1.79;88.33;-19787.69;5010038;28;20282;-60
2022/03/07 02:10:33;;;;;;;5.03;4.53;;;0.90;99.90;;;1.63;89.29;-19782.22;5009395;28;20292;-56
2022/03/07 02:13:01;;;;;;;5.43;4.47;;;0.90;99.90;;;1.59;89.75;-19780.84;5009281;28;20224;-56
2022/03/07 02:15:29;;;;;;;6.43;4.53;;;0.90;99.90;;;1.71;88.96;-19784.97;5009398;28;20232;-60
2022/03/07 02:17:57;;;;;;;4.90;4.40;;;0.90;99.90;;;1.56;89.52;-19779.81;5008998;28;20733;-57
2022/03/07 02:20:25;;;;;;;5.40;4.70;;;0.80;99.90;;;1.76;89.58;-19786.84;5013431;28;20302;-58
2022/03/07 02:22:55;;;;;;;4.50;4.10;;;0.80;99.90;;;1.80;89.04;-19788.19;5012801;28;20697;-57
2022/03/07 02:25:23;;;;;;;5.70;4.80;;;0.90;99.90;;;1.61;89.74;-19781.69;5013062;28;20258;-58
2022/03/07 02:27:51;;;;;;;5.07;4.57;;;0.80;99.90;;;1.39;90.86;-19774.00;5012677;28;20224;-58
2022/03/07 02:30:19;;;;;;;5.87;4.60;;;0.80;99.90;;;1.48;90.75;-19777.25;5012858;28;20254;-59
2022/03/07 02:32:47;;;;;;;5.40;4.90;;;0.70;99.90;;;1.43;91.72;-19775.56;5013086;28;20203;-56
2022/03/07 02:35:15;;;;;;;5.83;4.80;;;0.70;99.90;;;1.68;90.60;-19784.09;5013220;28;20230;-59
2022/03/07 02:37:43;;;;;;;5.40;4.90;;;0.80;99.90;;;1.48;91.09;-19777.09;5012315;28;20600;-60
2022/03/07 02:40:14;;;;;;;5.63;4.87;;;0.80;99.90;;;1.59;90.92;-19780.84;5012662;28;20260;-58
2022/03/07 02:43:02;;;;;;;5.63;5.13;;;0.80;99.90;;;1.82;90.15;-19788.88;5012221;28;20238;-57
2022/03/07 02:45:30;;;;;;;7.17;5.17;;;0.80;99.90;;;1.61;90.16;-19781.53;5012056;28;20757;-59
2022/03/07 02:47:58;;;;;;;5.30;4.80;;;0.80;99.90;;;1.42;91.27;-19775.03;5012886;28;20313;-58
2022/03/07 02:50:26;;;;;;;5.80;5.20;;;0.80;99.90;;;1.51;91.30;-19778.28;5019693;28;20198;-58
2022/03/07 02:52:56;;;;;;;5.33;4.83;;;0.70;99.90;;;1.56;91.62;-19779.81;5031782;28;20309;-58
2022/03/07 02:55:26;;;;;;;5.87;5.00;;;0.80;99.90;;;1.60;91.64;-19781.38;5031957;28;20250;-57
2022/03/07 02:57:54;;;;;;;5.00;4.60;;;0.80;99.90;;;1.65;90.52;-19783.06;5031464;28;20701;-59
2022/03/07 03:00:22;;;;;;;6.57;5.30;;;0.80;99.90;;;1.85;89.84;-19789.91;5031642;28;20709;-59
2022/03/07 03:02:50;;;;;;;5.67;5.10;;;0.80;99.90;;;1.74;89.46;-19785.97;5004258;28;20298;-59
2022/03/07 03:05:18;;;;;;;6.70;4.93;;;0.90;99.90;;;1.53;91.21;-19778.97;5016950;28;20214;-59
2022/03/07 03:07:51;;;;;;;6.37;5.03;;;0.80;99.90;;;1.53;92.85;-19778.78;5050383;28;20229;-59
2022/03/07 03:10:20;;;;;;;5.37;4.83;;;0.80;99.90;;;1.71;90.57;-19785.13;5051430;28;20225;-60
2022/03/07 03:12:52;;;;;;;6.70;5.27;;;0.90;99.90;;;1.52;91.97;-19778.63;5051460;28;20235;-60
2022/03/07 03:15:21;;;;;;;6.13;5.17;;;0.80;99.90;;;1.59;92.67;-19780.84;5051489;28;20317;-59
2022/03/07 03:17:52;;;;;;;6.57;5.27;;;0.80;99.90;;;1.60;92.59;-19781.19;5051384;28;20188;-58
2022/03/07 03:20:20;;;;;;;6.37;5.00;;;0.80;99.90;;;1.55;92.67;-19779.66;5052008;28;20668;-59
2022/03/07 03:22:48;;;;;;;6.10;5.50;;;0.80;99.90;;;1.57;92.96;-19780.34;5051493;28;20233;-58
2022/03/07 03:25:16;;;;;;;6.00;5.40;;;0.80;99.90;;;1.38;94.37;-19773.84;5051498;28;20324;-59
2022/03/07 03:27:44;;;;;;;6.57;5.37;;;0.80;99.90;;;1.54;94.48;-19779.31;5051043;28;20235;-59
2022/03/07 03:30:15;;;;;;;6.13;5.50;;;0.80;99.90;;;1.52;94.98;-19778.47;5051347;28;20600;-59
2022/03/07 03:32:43;;;;;;;7.17;5.50;;;0.80;99.90;;;1.38;95.39;-19773.84;5051188;28;20708;-59
2022/03/07 03:35:11;;;;;;;6.67;5.57;;;0.70;99.90;;;1.78;94.18;-19787.34;5051862;28;20228;-60
2022/03/07 03:37:39;;;;;;;6.47;5.37;;;0.70;99.90;;;1.44;93.42;-19775.88;5051033;28;20228;-57
2022/03/07 03:40:11;;;;;;;6.30;5.53;;;0.80;99.90;;;1.33;95.30;-19772.13;5051078;28;20311;-58
2022/03/07 03:42:40;;;;;;;7.33;5.50;;;0.70;99.90;;;1.28;96.40;-19770.41;5051168;28;20653;-61
2022/03/07 03:45:10;;;;;;;6.73;5.60;;;0.70;99.90;;;1.66;92.97;-19783.41;5050761;28;20740;-59
2022/03/07 03:47:41;;;;;;;6.37;5.77;;;0.80;99.90;;;1.66;94.09;-19783.25;5050943;28;20655;-60
2022/03/07 03:50:13;;;;;;;6.60;5.70;;;0.80;99.90;;;1.56;94.45;-19780.00;5055215;28;20199;-54
2022/03/07 03:52:42;;;;;;;6.20;5.60;;;0.80;99.90;;;1.41;95.58;-19774.69;5070841;28;20243;-59
2022/03/07 03:55:13;;;;;;;7.50;5.87;;;0.70;99.90;;;1.25;96.80;-19769.41;5070593;28;20220;-59
2022/03/07 03:57:41;;;;;;;8.07;5.87;;;0.60;99.90;;;1.20;97.58;-19767.69;5067198;28;20214;-59
2022/03/07 04:00:13;;;;;;;6.13;5.60;;;0.60;99.90;;;1.34;96.96;-19772.47;5051015;28;20228;-57
2022/03/07 04:02:44;;;;;;;6.70;5.47;;;0.60;99.90;;;1.69;95.72;-19784.28;5051128;28;20625;-59
2022/03/07 04:05:13;;;;;;;6.73;5.97;;;0.70;99.90;;;1.77;93.37;-19787.00;5051289;28;20277;-59
2022/03/07 04:07:42;;;;;;;7.37;6.07;;;0.80;99.90;;;1.69;94.15;-19784.44;5050987;28;20239;-58
2022/03/07 04:10:13;;;;;;;8.07;5.90;;;0.80;99.90;;;1.54;95.20;-19779.31;5050669;28;20236;-56
2022/03/07 04:12:42;;;;;;;6.80;6.10;;;0.80;99.90;;;1.53;96.11;-19778.97;5050766;28;20225;-56
2022/03/07 04:15:12;;;;;;;9.67;6.37;;;0.70;99.90;;;1.54;96.06;-19779.16;5050493;28;20257;-58
2022/03/07 04:17:44;;;;;;;6.77;6.07;;;0.70;99.90;;;1.48;95.80;-19777.09;5050843;28;20228;-58
2022/03/07 04:20:14;;;;;;;7.13;6.43;;;0.70;99.90;;;1.54;95.70;-19779.31;5051100;28;20315;-59
2022/03/07 04:22:42;;;;;;;7.50;6.80;;;0.70;99.90;;;1.59;95.79;-19781.03;5050619;28;20728;-59
2022/03/07 04:25:10;;;;;;;7.17;6.47;;;0.70;99.90;;;1.58;95.36;-19780.50;5050506;28;20243;-57
2022/03/07 04:27:39;;;;;;;7.63;6.07;;;0.70;99.90;;;1.10;97.41;-19764.25;5050084;28;20768;-57
2022/03/07 04:30:09;;;;;;;7.57;6.80;;;0.60;99.90;;;1.15;98.12;-19765.97;5050120;28;20625;-57
2022/03/07 04:32:38;;;;;;;8.70;5.87;;;0.50;99.90;;;1.16;98.26;-19766.50;5050951;28;20224;-59
2022/03/07 04:35:11;;;;;;;7.30;6.60;;;0.50;99.90;;;1.21;98.62;-19768.03;5050548;28;20205;-58
2022/03/07 04:37:40;;;;;;;7.13;6.20;;;0.40;99.90;;;1.10;98.80;-19764.25;5050357;28;20233;-61
2022/03/07 04:40:12;;;;;;;8.97;6.27;;;0.40;99.90;;;1.23;98.20;-19768.88;5050321;28;20236;-59
2022/03/07 04:42:42;;;;;;;7.63;6.47;;;0.50;99.90;;;1.17;99.12;-19766.84;5049909;28;20316;-58
2022/03/07 04:45:12;;;;;;;7.07;6.37;;;0.40;99.90;;;1.53;96.06;-19778.97;5049914;28;20687;-56
2022/03/07 04:47:41;;;;;;;7.87;6.40;;;0.50;99.90;;;1.43;96.32;-19775.38;5050284;28;20205;-60
2022/03/07 04:50:12;;;;;;;6.73;6.00;;;0.50;99.90;;;0.96;98.49;-19759.66;5053724;28;20287;-59
2022/03/07 04:52:41;;;;;;;6.93;6.23;;;0.40;99.90;;;1.00;99.75;-19761.03;5070159;28;20232;-58
2022/03/07 04:55:11;;;;;;;9.10;6.60;;;0.30;99.90;;;0.87;100.00;-19756.41;5056336;28;20232;-58
2022/03/07 04:57:39;;;;;;;7.50;6.63;;;0.30;99.90;;;0.89;100.00;-19757.09;5049925;28;20311;-59
2022/03/07 05:00:11;;;;;;;7.60;6.37;;;0.20;99.90;;;1.00;100.00;-19760.84;5049805;28;20251;-58
2022/03/07 05:02:39;;;;;;;7.20;6.50;;;0.20;99.90;;;0.80;100.00;-19754.00;5049836;28;20282;-59
2022/03/07 05:05:09;;;;;;;8.53;6.90;;;0.20;99.90;;;0.74;100.00;-19752.13;5050034;28;20292;-59
2022/03/07 05:07:37;;;;;;;7.27;6.53;;;0.20;99.90;;;0.57;100.00;-19746.16;5049955;28;20235;-57
2022/03/07 05:10:07;;;;;;;7.30;6.60;;;0.10;99.90;;;0.65;100.00;-19748.88;5049812;28;20893;-59
2022/03/07 05:12:35;;;;;;;8.10;6.63;;;0.10;99.90;;;0.58;100.00;-19746.47;5049804;28;20308;-60
2022/03/07 05:15:03;;;;;;;7.73;6.80;;;0.00;99.90;;;0.48;100.00;-19743.25;5049788;28;20429;-57
2022/03/07 05:17:31;;;;;;;8.10;7.20;;;0.00;99.90;;;0.41;100.00;-19740.66;5050423;28;20582;-58
2022/03/07 05:19:59;;;;;;;9.27;7.13;;;-0.10;99.90;;;0.52;100.00;-19744.59;5050367;28;20234;-59
2022/03/07 05:22:28;;;;;;;8.17;7.37;;;-0.10;99.90;;;0.46;100.00;-19742.56;5049860;28;20320;-59
2022/03/07 05:24:56;;;;;;;8.40;7.10;;;-0.20;99.90;;;0.52;100.00;-19744.44;5049652;28;20684;-58
2022/03/07 05:27:24;;;;;;;8.50;7.33;;;-0.20;99.90;;;0.59;100.00;-19746.81;5049536;28;20220;-58
2022/03/07 05:29:52;;;;;;;9.40;7.80;;;-0.10;99.90;;;0.53;100.00;-19744.78;5049731;28;20264;-59
2022/03/07 05:32:20;;;;;;;10.33;7.83;;;-0.10;99.90;;;0.76;100.00;-19752.66;5050158;28;20692;-57
2022/03/07 05:34:48;;;;;;;10.43;8.27;;;-0.10;99.90;;;0.67;100.00;-19749.75;5049727;28;20232;-58
2022/03/07 05:37:16;;;;;;;8.90;8.00;;;-0.10;99.90;;;0.89;100.00;-19757.09;5049765;28;20226;-59
2022/03/07 05:39:46;;;;;;;11.13;8.20;;;-0.10;99.90;;;0.76;100.00;-19752.66;5049509;28;20229;-58
2022/03/07 05:42:14;;;;;;;9.17;8.20;;;0.00;99.90;;;0.53;100.00;-19744.94;5049887;28;20238;-59
2022/03/07 05:44:43;;;;;;;10.47;8.27;;;-0.10;99.90;;;0.68;100.00;-19749.91;5049776;28;20506;-60
2022/03/07 05:47:11;;;;;;;11.67;8.73;;;-0.10;99.90;;;0.58;100.00;-19746.66;5050235;28;20374;-58
2022/03/07 05:49:39;;;;;;;9.50;8.07;;;-0.20;99.90;;;0.52;100.00;-19744.59;5049590;28;20255;-58
2022/03/07 05:52:07;;;;;;;10.63;8.70;;;-0.20;99.90;;;0.32;100.00;-19737.59;5049083;28;20229;-59
2022/03/07 05:54:35;;;;;;;11.93;8.83;;;-0.30;99.90;;;0.40;100.00;-19740.50;5051820;28;20229;-59
2022/03/07 05:57:05;;;;;;;10.27;8.73;;;-0.40;99.90;;;0.32;100.00;-19737.59;5053082;28;20699;-56
2022/03/07 05:59:33;;;;;;;12.30;8.73;;;-0.40;99.90;;;-0.02;100.00;-19726.31;5053481;28;20305;-60
2022/03/07 06:02:02;;;;;;;11.77;8.90;;;-0.40;99.90;;;-0.02;100.00;-19726.31;5054644;28;20312;-58
2022/03/07 06:04:30;;;;;;;10.07;8.33;;;-0.60;99.90;;;0.17;100.00;-19732.63;5053269;28;20908;-58
2022/03/07 06:06:58;;;;;;;11.57;8.50;;;-0.50;99.90;;;0.24;100.00;-19735.03;5052672;28;20738;-58
2022/03/07 06:09:26;;;;;;;9.83;8.40;;;-0.50;99.90;;;0.19;100.00;-19733.16;5053101;28;20324;-59
2022/03/07 06:11:54;;;;;;;10.40;8.73;;;-0.40;99.90;;;0.10;100.00;-19730.06;5052647;28;20245;-59
2022/03/07 06:14:23;;;;;;;11.00;8.40;;;-0.50;99.90;;;0.18;100.00;-19732.97;5053345;28;20241;-59
2022/03/07 06:16:51;;;;;;;10.03;8.33;;;-0.40;99.90;;;0.20;100.00;-19733.50;5053064;28;20325;-58
2022/03/07 06:19:19;;;;;;;10.93;8.23;;;-0.50;99.90;;;0.12;100.00;-19730.75;5053374;28;20289;-57
2022/03/07 06:21:47;;;;;;;14.73;8.80;;;-0.40;99.90;;;0.47;100.00;-19742.91;5052613;28;20701;-59
2022/03/07 06:24:15;;;;;;;9.20;7.70;;;-0.40;99.90;;;0.39;100.00;-19740.16;5053849;28;20226;-59
2022/03/07 06:26:43;;;;;;;9.63;8.27;;;-0.30;99.90;;;0.30;100.00;-19737.09;5053639;28;20292;-57
2022/03/07 06:29:11;;;;;;;10.03;7.33;;;-0.30;99.90;;;0.70;100.00;-19750.75;5054149;28;20202;-58
2022/03/07 06:31:40;;;;;;;11.00;7.80;;;-0.20;99.90;;;0.78;100.00;-19753.31;5053540;28;20309;-58
2022/03/07 06:34:08;;;;;;;8.20;7.30;;;0.00;99.90;;;0.90;100.00;-19757.44;5053608;28;20595;-58
2022/03/07 06:36:36;;;;;;;9.27;6.80;;;0.00;99.90;;;0.79;100.00;-19753.66;5053481;28;20224;-57
2022/03/07 06:39:04;;;;;;;8.77;6.97;;;0.10;99.90;;;0.80;100.00;-19754.19;5053623;28;20317;-57
2022/03/07 06:41:33;;;;;;;10.40;7.70;;;0.10;99.90;;;1.07;100.00;-19763.25;5053642;28;20230;-59
2022/03/07 06:44:01;;;;;;;8.67;7.10;;;0.20;99.90;;;1.05;100.00;-19762.72;5052405;28;20259;-58
2022/03/07 06:46:29;;;;;;;8.57;6.77;;;0.30;99.90;;;1.12;100.00;-19764.94;5052888;28;20217;-59
2022/03/07 06:48:59;;;;;;;8.87;7.23;;;0.30;99.90;;;0.99;100.00;-19760.50;5053125;28;20231;-59
2022/03/07 06:51:27;;;;;;;8.27;6.97;;;0.30;99.90;;;1.17;100.00;-19766.84;5066378;28;20327;-56
2022/03/07 06:53:55;;;;;;;7.63;6.83;;;0.40;99.90;;;1.43;99.31;-19775.56;5072890;28;20762;-59
2022/03/07 06:56:23;;;;;;;7.40;6.70;;;0.50;99.90;;;1.47;98.51;-19776.75;5073463;28;20302;-58
2022/03/07 06:58:50;;;;;;;8.97;6.37;;;0.60;99.90;;;1.55;96.96;-19779.47;5072450;28;20609;-58
2022/03/07 07:01:18;;;;;;;7.53;6.70;;;0.60;99.90;;;1.53;96.36;-19778.78;5072390;28;20256;-59
2022/03/07 07:03:47;;;;;;;8.27;6.50;;;0.70;99.90;;;1.57;96.05;-19780.16;5072743;28;20775;-59
2022/03/07 07:06:16;;;;;;;8.50;6.80;;;0.80;99.90;;;1.65;95.43;-19782.91;5059875;28;20225;-57
2022/03/07 07:08:44;;;;;;;8.30;6.70;;;0.80;99.90;;;1.85;92.55;-19789.91;5052949;28;20288;-59
2022/03/07 07:11:12;;;;;;;8.67;6.53;;;1.00;99.90;;;1.95;92.57;-19793.16;5052966;28;20298;-56
2022/03/07 07:13:40;;;;;;;6.43;5.83;;;1.10;99.90;;;1.97;91.66;-19794.00;5052330;28;20231;-59
2022/03/07 07:16:09;;;;;;;7.00;6.20;;;1.20;99.90;;;2.05;91.14;-19796.56;5052163;28;20752;-56
2022/03/07 07:18:37;;;;;;;7.60;6.40;;;1.20;99.90;;;2.08;90.13;-19797.78;5052607;28;20240;-59
2022/03/07 07:21:05;;;;;;;8.73;6.93;;;1.30;99.90;;;2.22;89.39;-19802.56;5052636;28;20249;-59
2022/03/07 07:23:35;;;;;;;9.73;7.83;;;1.30;99.90;;;2.21;88.92;-19802.22;5052391;28;20215;-59
2022/03/07 07:26:04;;;;;;;12.80;9.33;;;1.40;99.90;;;2.21;90.19;-19802.06;5052999;28;20193;-57
2022/03/07 07:28:32;;;;;;;75.60;28.33;;;1.50;99.90;;;2.72;86.09;-19819.50;5052183;28;20286;-57
2022/03/07 07:31:00;;;;;;;66.90;24.33;;;1.70;99.90;;;2.82;84.75;-19822.72;5052374;28;20235;-60
2022/03/07 07:33:28;;;;;;;193.37;58.90;;;1.80;99.90;;;2.83;83.18;-19823.06;5052354;28;20267;-57
2022/03/07 07:35:56;;;;;;;62.30;37.83;;;1.90;99.90;;;2.89;82.61;-19825.31;5052236;28;20703;-59
2022/03/07 07:38:24;;;;;;;20.20;12.77;;;2.00;99.90;;;2.86;82.68;-19824.28;5052898;28;20201;-59
2022/03/07 07:40:55;;;;;;;19.97;11.27;;;2.00;99.90;;;2.95;83.59;-19827.19;5051804;28;20247;-60
2022/03/07 07:43:23;;;;;;;14.07;9.50;;;2.10;99.90;;;3.03;82.64;-19830.09;5049400;28;20591;-62
2022/03/07 07:45:51;;;;;;;9.77;7.43;;;2.20;99.90;;;3.19;80.34;-19835.38;5054468;28;20233;-57
2022/03/07 07:48:19;;;;;;;9.40;8.20;;;2.30;99.90;;;3.34;78.73;-19840.69;5052349;28;20590;-58
2022/03/07 07:50:46;;;;;;;8.00;6.60;;;2.40;99.90;;;3.43;77.61;-19843.59;5052010;28;20200;-56
2022/03/07 07:53:14;;;;;;;7.97;6.00;;;2.50;99.90;;;3.51;77.50;-19846.50;5051830;28;20579;-59
2022/03/07 07:55:42;;;;;;;6.43;5.13;;;2.50;99.90;;;3.69;76.03;-19852.47;5051709;28;20225;-56
2022/03/07 07:58:11;;;;;;;7.97;5.40;;;2.60;99.90;;;3.84;74.76;-19857.44;5051426;28;20233;-50
2022/03/07 08:00:40;;;;;;;9.37;6.60;;;2.70;99.90;;;3.83;74.92;-19857.25;5051583;28;20234;-55
2022/03/07 08:03:08;;;;;;;6.90;5.30;;;2.80;99.90;;;3.80;74.12;-19856.25;5051352;28;20227;-59
2022/03/07 08:05:36;;;;;;;5.87;4.43;;;2.90;99.90;;;3.92;71.95;-19860.16;5051560;28;20197;-59
2022/03/07 08:08:06;;;;;;;5.47;4.07;;;3.00;99.90;;;4.17;68.75;-19868.88;5051974;28;20215;-60
2022/03/07 08:10:34;;;;;;;7.77;4.50;;;3.10;99.90;;;4.25;69.30;-19871.44;5051240;28;20230;-58
2022/03/07 08:13:02;;;;;;;5.37;4.70;;;3.10;99.90;;;4.17;68.21;-19868.88;5051474;28;20259;-60
2022/03/07 08:15:31;;;;;;;4.50;4.10;;;3.20;99.90;;;4.23;67.71;-19870.78;5051574;28;20225;-59
2022/03/07 08:17:59;;;;;;;5.17;3.70;;;3.20;99.90;;;4.48;63.36;-19879.47;5050672;28;20258;-60
2022/03/07 08:20:27;;;;;;;5.43;3.30;;;3.30;99.90;;;4.33;63.42;-19874.34;5051828;28;20225;-60
2022/03/07 08:22:56;;;;;;;4.10;3.20;;;3.30;99.90;;;4.41;63.83;-19877.09;5051057;28;20233;-58
2022/03/07 08:25:25;;;;;;;6.63;2.90;;;3.40;99.90;;;4.47;60.63;-19879.16;5051286;28;20340;-59
2022/03/07 08:27:54;;;;;;;4.27;3.00;;;3.40;99.90;;;4.51;59.13;-19880.50;5051060;28;20243;-60
2022/03/07 08:30:25;;;;;;;3.83;3.20;;;3.50;99.90;;;4.64;58.80;-19884.97;5050907;28;20233;-60
2022/03/07 08:32:55;;;;;;;3.07;2.77;;;3.50;99.90;;;4.82;57.68;-19890.94;5051223;28;20241;-59
2022/03/07 08:35:24;;;;;;;5.60;3.00;;;3.60;99.90;;;5.03;58.04;-19898.13;5051664;28;20212;-60
2022/03/07 08:37:54;;;;;;;3.07;2.63;;;3.80;99.90;;;5.05;56.57;-19898.63;5051089;28;20640;-59
2022/03/07 08:40:23;;;;;;;3.77;3.20;;;3.80;99.90;;;5.04;55.67;-19898.47;5050838;28;20228;-60
2022/03/07 08:42:52;;;;;;;4.83;2.63;;;3.90;99.90;;;4.97;56.47;-19896.22;5050635;28;20229;-60
2022/03/07 08:45:23;;;;;;;3.00;2.70;;;3.90;99.90;;;5.05;55.43;-19898.63;5050859;28;20364;-59
2022/03/07 08:48:07;;;;;;;3.50;3.13;;;3.90;99.90;;;5.14;56.51;-19901.88;5050505;28;20231;-59
2022/03/07 08:50:35;;;;;;;3.10;2.90;;;4.00;99.90;;;5.25;56.85;-19905.47;5050826;28;20203;-60
2022/03/07 08:53:04;;;;;;;3.53;2.83;;;4.10;99.90;;;5.49;56.43;-19913.84;5051186;28;20199;-62
2022/03/07 08:55:31;;;;;;;5.43;3.57;;;4.10;99.90;;;5.31;56.64;-19907.53;5050709;28;20701;-59
2022/03/07 08:57:59;;;;;;;3.33;3.00;;;4.10;99.90;;;5.55;55.90;-19915.72;5050592;28;20310;-58
2022/03/07 09:00:27;;;;;;;3.57;3.27;;;4.30;99.90;;;5.44;55.56;-19911.97;5050608;28;20222;-59
2022/03/07 09:02:55;;;;;;;4.13;3.30;;;4.30;99.90;;;5.52;56.70;-19914.88;5050777;28;20225;-56
2022/03/07 09:05:25;;;;;;;4.80;3.47;;;4.40;99.90;;;5.56;57.28;-19916.25;5050675;28;20562;-55
2022/03/07 09:07:53;;;;;;;4.07;3.67;;;4.50;99.90;;;5.64;57.29;-19918.78;5050711;28;20317;-54
2022/03/07 09:10:20;;;;;;;5.40;3.90;;;4.50;99.90;;;5.63;57.60;-19918.47;5050732;28;20322;-56
2022/03/07 09:12:49;;;;;;;4.53;3.70;;;4.50;99.90;;;5.59;58.33;-19917.25;5050554;28;20226;-55
2022/03/07 09:15:17;;;;;;;4.63;3.90;;;4.40;99.90;;;5.69;59.34;-19920.50;5050331;28;20228;-50
2022/03/07 09:17:45;;;;;;;4.72;4.30;;;4.50;99.90;;;5.62;59.72;-19918.28;5050093;28;20544;-59
2022/03/07 09:20:16;;;;;;;7.53;4.77;;;4.40;99.90;;;5.68;61.16;-19920.16;5051096;28;20343;-58
2022/03/07 09:22:46;;;;;;;5.83;4.23;;;4.50;99.90;;;5.71;60.31;-19921.19;5050371;28;20228;-61
2022/03/07 09:25:15;;;;;;;4.53;3.80;;;4.60;99.90;;;5.65;60.85;-19919.31;5050245;28;20714;-60
2022/03/07 09:27:44;;;;;;;6.77;4.10;;;4.60;99.90;;;5.81;60.80;-19924.78;5051363;28;20281;-60
2022/03/07 09:30:14;;;;;;;4.90;4.50;;;4.60;99.90;;;6.02;60.50;-19931.78;5054220;28;20227;-60
2022/03/07 09:32:43;;;;;;;7.50;4.77;;;4.90;99.90;;;6.09;59.71;-19934.34;5054515;28;20193;-60
2022/03/07 09:35:11;;;;;;;4.80;4.40;;;4.80;99.90;;;6.11;60.41;-19934.88;5054623;28;20207;-56
2022/03/07 09:37:39;;;;;;;7.43;4.83;;;4.90;99.90;;;6.09;61.54;-19934.19;5054307;28;20230;-58
2022/03/07 09:40:10;;;;;;;5.30;4.57;;;5.00;99.90;;;6.22;60.78;-19938.47;5054252;28;20739;-57
2022/03/07 09:42:38;;;;;;;5.17;4.63;;;5.10;99.90;;;6.43;60.80;-19945.81;5054092;28;20324;-53
2022/03/07 09:45:12;;;;;;;5.90;4.70;;;5.10;99.90;;;6.53;60.01;-19949.06;5053903;28;20223;-59
2022/03/07 09:47:45;;;;;;;5.93;4.60;;;5.20;99.90;;;6.59;59.45;-19951.28;5054217;28;20202;-60
2022/03/07 09:50:14;;;;;;;6.97;4.70;;;5.30;99.90;;;6.51;60.01;-19948.53;5054751;28;20188;-60
2022/03/07 09:52:45;;;;;;;5.17;4.53;;;5.30;99.90;;;6.74;59.58;-19956.22;5054155;28;20229;-58
2022/03/07 09:55:18;;;;;;;5.60;4.50;;;5.40;99.90;;;7.00;58.21;-19965.13;5054125;28;20226;-59
2022/03/07 09:57:47;;;;;;;6.13;5.00;;;5.60;99.90;;;7.03;59.01;-19966.16;5054025;28;20297;-55
2022/03/07 10:00:16;;;;;;;5.80;5.20;;;5.60;99.90;;;7.26;58.10;-19974.00;5053991;28;20228;-57
2022/03/07 10:02:54;;;;;;;5.90;5.17;;;5.70;99.90;;;7.70;57.73;-19989.03;5054021;28;20224;-57
2022/03/07 10:05:26;;;;;;;7.23;5.10;;;5.90;99.90;;;8.07;56.26;-20001.69;5053930;28;20197;-58
2022/03/07 10:07:55;;;;;;;7.10;5.00;;;6.30;99.90;;;8.00;56.12;-19999.28;5053958;28;20237;-57
2022/03/07 10:10:30;;;;;;;5.50;5.00;;;6.50;99.90;;;7.92;56.64;-19996.38;5053809;28;20673;-57
2022/03/07 10:12:58;;;;;;;5.63;5.03;;;6.40;99.90;;;7.55;57.14;-19983.91;5053662;28;20323;-56
2022/03/07 10:15:26;;;;;;;5.47;4.97;;;6.30;99.90;;;7.00;58.83;-19965.28;5053490;28;20644;-57
2022/03/07 10:17:55;;;;;;;5.43;4.83;;;6.10;99.90;;;6.70;59.93;-19955.03;5054470;28;20233;-59
2022/03/07 10:20:26;;;;;;;6.87;5.03;;;5.80;99.90;;;6.72;59.90;-19955.53;5056265;28;20213;-62
2022/03/07 10:22:57;;;;;;;7.43;5.37;;;5.60;99.90;;;6.50;61.38;-19948.19;5054720;28;20239;-61
2022/03/07 10:25:29;;;;;;;5.70;5.00;;;5.50;99.90;;;6.17;62.63;-19937.09;5053412;28;20238;-59
2022/03/07 10:28:01;;;;;;;6.97;5.27;;;5.40;99.90;;;6.29;63.03;-19941.03;5053477;28;20746;-59
2022/03/07 10:30:33;;;;;;;7.30;5.27;;;5.30;99.90;;;6.52;62.36;-19948.88;5053519;28;20250;-59